Latest Weather Observations for Ngayawili (Elcho Island)

IDD60801

Issued at 12:51 pm CST Sunday 16 December 2018 (issued every 10 minutes, with the page automatically refreshed every 10 minutes)

About weather observations | Map of weather stations | Latest weather observations for NT | Other Formats
Station Details ID: 014517 Name: NGAYAWILI Lat: -12.00 Lon: 135.57 Height: 8.1 m
Data from the previous 72 hours. | See also: Recent months at Ngayawili (Elcho Island)
Date/Time
CST
Temp
°C
App
Temp
°C
Dew
Point
°C
Rel
Hum
%
Delta-T
°C
Wind Press
QNH
hPa
Press
MSL
hPa
Rain since
9am
mm
Dir  Spd
km/h
Gust
km/h
Spd
kts
Gust
kts
16/12:30pm 32.5 36.5 27.0 73 4.0 WNW 20 24 11 13 1006.3 1006.2 0.0
16/12:00pm 32.6 36.7 26.9 72 4.1 WNW 19 24 10 13 1006.5 1006.4 0.0
16/11:30am 32.5 36.9 27.3 74 3.8 W 19 20 10 11 1006.9 1006.8 0.0
16/11:00am 32.1 36.6 26.9 74 3.8 W 17 20 9 11 1007.3 1007.2 0.0
16/10:30am 31.9 36.5 27.1 76 3.5 W 17 20 9 11 1007.5 1007.4 0.0
16/10:00am 31.7 35.8 26.9 76 3.5 WSW 19 24 10 13 1007.6 1007.5 0.0
16/09:30am 31.7 36.1 27.4 78 3.1 W 19 24 10 13 1007.8 1007.7 0.0
16/09:00am 31.4 35.4 27.1 78 3.1 WSW 20 24 11 13 1007.7 1007.6 0.6
16/08:30am 31.2 35.4 27.3 80 2.8 WSW 20 24 11 13 1007.6 1007.5 0.6
16/08:00am 30.5 33.6 26.9 81 2.6 WSW 24 28 13 15 1007.7 1007.6 0.6
16/07:30am 30.5 33.9 26.7 80 2.7 W 22 26 12 14 1007.7 1007.6 0.6
16/07:00am 30.2 34.2 27.0 83 2.3 W 20 24 11 13 1007.4 1007.3 0.6
16/06:30am 29.9 33.9 27.1 85 2.0 WNW 20 24 11 13 1006.8 1006.7 0.6
16/06:00am 29.7 33.1 26.7 84 2.2 WNW 22 26 12 14 1006.3 1006.2 0.6
16/05:30am 29.6 33.2 27.0 86 1.9 WNW 22 26 12 14 1006.0 1005.9 0.6
16/05:00am 29.6 33.2 27.0 86 1.9 WNW 22 24 12 13 1005.6 1005.5 0.6
16/04:30am 29.6 32.4 27.0 86 1.9 WNW 26 30 14 16 1005.2 1005.1 0.6
16/04:00am 29.6 32.2 27.2 87 1.7 NW 28 32 15 17 1005.3 1005.2 0.6
16/03:30am 29.9 32.8 27.1 85 2.0 WNW 26 30 14 16 1005.2 1005.1 0.0
16/03:00am 29.9 32.3 26.9 84 2.2 WNW 28 33 15 18 1005.3 1005.2 0.0
16/02:30am 29.9 31.8 26.7 83 2.3 NW 30 33 16 18 1005.2 1005.1 0.0
16/02:00am 29.9 31.8 26.7 83 2.3 NW 30 33 16 18 1005.3 1005.2 0.0
16/01:30am 30.0 32.5 27.0 84 2.2 NW 28 32 15 17 1005.7 1005.6 0.0
16/01:00am 30.0 32.8 27.0 84 2.2 NW 26 30 14 16 1006.0 1005.9 0.0
16/12:30am 29.9 32.8 26.5 82 2.4 NW 24 28 13 15 1006.0 1005.9 0.0
16/12:00am 29.9 33.4 26.9 84 2.2 NW 22 26 12 14 1005.9 1005.8 0.0
 
Date/Time
CST
Temp
°C
App
Temp
°C
Dew
Point
°C
Rel
Hum
%
Delta-T
°C
Wind Press
QNH
hPa
Press
MSL
hPa
Rain since
9am
mm
Dir  Spd
km/h
Gust
km/h
Spd
kts
Gust
kts
15/11:30pm 30.0 33.7 27.2 85 2.0 NW 22 24 12 13 1005.7 1005.6 0.0
15/11:00pm 29.9 33.3 26.7 83 2.3 NW 22 26 12 14 1005.8 1005.7 0.0
15/10:30pm 29.9 33.6 27.1 85 2.0 NW 22 26 12 14 1005.7 1005.6 0.0
15/10:00pm 29.9 34.1 27.1 85 2.0 NW 19 22 10 12 1005.5 1005.4 0.0
15/09:30pm 29.9 34.4 26.9 84 2.2 NW 17 20 9 11 1005.4 1005.3 0.0
15/09:00pm 29.9 34.5 27.1 85 2.0 NW 17 20 9 11 1005.2 1005.1 0.0
15/08:30pm 29.9 34.3 27.3 86 1.9 NW 19 20 10 11 1005.0 1004.9 0.0
15/08:00pm 29.8 34.1 27.2 86 1.9 NW 19 22 10 12 1004.8 1004.7 0.0
15/07:30pm 29.8 33.5 26.6 83 2.3 NW 20 24 11 13 1004.4 1004.3 0.0
15/07:00pm 29.8 33.2 26.2 81 2.6 NW 20 24 11 13 1004.2 1004.1 0.0
15/06:30pm 30.0 33.7 26.6 82 2.4 NW 20 24 11 13 1004.2 1004.1 0.0
15/06:00pm 30.2 34.1 26.1 79 2.9 NW 17 20 9 11 1004.0 1003.9 0.0
15/05:30pm 30.5 33.8 26.0 77 3.2 NW 20 26 11 14 1004.1 1004.0 0.0
15/05:00pm 30.6 34.0 25.9 76 3.3 NW 19 22 10 12 1004.0 1003.9 0.0
15/04:30pm 31.3 35.2 25.4 71 4.2 NW 15 19 8 10 1004.4 1004.3 0.0
15/04:00pm 31.2 35.3 25.8 73 3.8 NW 15 20 8 11 1004.3 1004.2 0.0
15/03:30pm 31.4 36.7 26.4 75 3.6 N 11 17 6 9 1004.2 1004.1 0.0
15/03:00pm 30.8 34.9 26.3 77 3.2 N 17 20 9 11 1004.4 1004.3 0.0
15/02:30pm 31.0 35.7 26.7 78 3.1 NNW 15 20 8 11 1004.6 1004.5 0.0
15/02:00pm 31.8 36.4 26.6 74 3.7 N 15 19 8 10 1004.7 1004.6 0.0
15/01:30pm 31.2 35.3 26.9 78 3.1 NNE 19 24 10 13 1005.4 1005.3 0.0
15/01:00pm 30.0 33.4 26.2 80 2.7 N 20 26 11 14 1006.0 1005.9 0.0
15/12:30pm 31.0 36.6 25.8 74 3.7 NNW 7 9 4 5 1006.2 1006.1 0.0
15/12:00pm 30.8 36.2 25.4 73 3.8 W 7 9 4 5 1006.7 1006.6 0.0
15/11:30am 30.7 36.0 25.3 73 3.8 WSW 7 9 4 5 1006.7 1006.6 0.0
15/11:00am 30.6 35.6 25.4 74 3.7 SW 9 11 5 6 1007.0 1006.9 0.0
15/10:30am 30.0 34.4 25.1 75 3.5 SW 11 13 6 7 1007.3 1007.2 0.0
15/10:00am 29.7 34.5 25.7 79 2.8 SW 11 15 6 8 1007.4 1007.3 0.0
15/09:30am 29.5 34.4 25.9 81 2.6 SW 11 13 6 7 1007.5 1007.4 0.0
15/09:00am 29.3 33.9 25.9 82 2.4 SW 13 17 7 9 1007.8 1007.7 24.8
15/08:30am 29.3 33.2 26.1 83 2.3 WSW 17 22 9 12 1007.5 1007.4 24.8
15/08:00am 29.3 32.9 26.1 83 2.3 WSW 19 20 10 11 1006.7 1006.6 24.8
15/07:30am 29.3 32.8 26.3 84 2.1 WSW 20 26 11 14 1006.1 1006.0 24.8
15/07:00am 29.2 31.9 26.2 84 2.1 W 24 32 13 17 1006.1 1006.0 24.8
15/06:30am 27.6 29.0 24.8 85 2.0 WNW 26 35 14 19 1005.7 1005.6 24.8
15/06:11am 28.4 33.5 27.3 94 0.8 SW 15 41 8 22 1005.7 1005.6 24.8
15/06:00am 25.5 29.9 24.5 94 0.7 SSE 9 19 5 10 1005.2 1005.1 24.8
15/05:37am 25.5 25.4 24.3 93 0.8 SW 32 52 17 28 1004.7 1004.6 22.2
15/05:30am 25.2 23.7 23.4 90 1.2 WSW 37 57 20 31 1004.4 1004.3 15.8
15/05:14am 25.6 24.0 24.0 91 1.1 WSW 39 57 21 31 1004.4 1004.3 7.6
15/05:05am 28.6 28.6 26.4 88 1.6 WNW 39 46 21 25 1004.5 1004.4 1.4
15/05:00am 30.0 31.2 27.6 87 1.7 NW 37 46 20 25 1004.1 1004.0 0.0
15/04:30am 30.1 31.8 27.3 85 2.0 WNW 33 39 18 21 1003.8 1003.7 0.0
15/04:00am 30.0 31.8 27.2 85 2.0 WNW 32 37 17 20 1003.3 1003.2 0.0
15/03:30am 30.0 32.1 27.0 84 2.2 WNW 30 37 16 20 1003.4 1003.3 0.0
15/03:00am 30.0 31.4 26.8 83 2.3 WNW 33 39 18 21 1003.5 1003.4 0.0
15/02:30am 30.2 32.0 27.4 85 2.0 WNW 33 39 18 21 1003.4 1003.3 0.0
15/02:00am 30.0 31.7 27.0 84 2.2 WNW 32 39 17 21 1003.6 1003.5 0.0
15/01:30am 29.9 31.0 26.9 84 2.2 WNW 35 41 19 22 1003.7 1003.6 0.0
15/01:00am 30.2 31.5 27.2 84 2.2 WNW 35 41 19 22 1004.1 1004.0 0.0
15/12:30am 30.5 32.4 27.3 83 2.3 NW 32 37 17 20 1004.4 1004.3 0.0
15/12:00am 30.6 32.1 27.0 81 2.6 NW 33 39 18 21 1004.4 1004.3 0.0
 
Date/Time
CST
Temp
°C
App
Temp
°C
Dew
Point
°C
Rel
Hum
%
Delta-T
°C
Wind Press
QNH
hPa
Press
MSL
hPa
Rain since
9am
mm
Dir  Spd
km/h
Gust
km/h
Spd
kts
Gust
kts
14/11:30pm 30.4 32.9 27.6 85 2.0 NW 30 35 16 19 1004.5 1004.4 0.0
14/11:00pm 30.4 33.0 27.8 86 1.9 NW 30 35 16 19 1004.5 1004.4 0.0
14/10:30pm 30.4 33.4 27.8 86 1.9 NW 28 33 15 18 1004.5 1004.4 0.0
14/10:00pm 30.4 33.3 27.6 85 2.0 NW 28 32 15 17 1004.3 1004.2 0.0
14/09:30pm 30.4 33.1 27.4 84 2.2 NW 28 32 15 17 1004.5 1004.4 0.0
14/09:00pm 30.4 33.7 27.6 85 2.0 NW 26 30 14 16 1004.5 1004.4 0.0
14/08:30pm 30.5 33.0 27.1 82 2.5 NW 28 32 15 17 1004.0 1003.9 0.0
14/08:00pm 30.6 33.2 27.2 82 2.5 NW 28 32 15 17 1003.9 1003.8 0.0
14/07:30pm 30.5 32.5 26.9 81 2.6 WNW 30 35 16 19 1003.4 1003.3 0.0
14/07:00pm 30.5 32.8 27.3 83 2.3 WNW 30 35 16 19 1003.0 1002.9 0.0
14/06:30pm 30.4 32.2 27.2 83 2.3 WNW 32 39 17 21 1002.2 1002.1 0.0
14/06:00pm 30.7 32.5 27.1 81 2.6 WNW 32 39 17 21 1002.3 1002.2 0.0
14/05:30pm 31.0 32.7 27.3 81 2.7 WNW 33 41 18 22 1001.7 1001.6 0.0
14/05:00pm 31.1 32.0 27.2 80 2.8 WNW 37 43 20 23 1001.5 1001.4 0.0
14/04:30pm 30.9 31.8 27.3 81 2.6 WNW 37 43 20 23 1001.6 1001.5 0.0
14/04:00pm 31.0 32.3 27.3 81 2.7 WNW 35 44 19 24 1001.6 1001.5 0.0
14/03:30pm 31.5 33.3 27.4 79 3.0 WNW 33 39 18 21 1001.8 1001.7 0.0
14/03:00pm 31.8 33.1 27.3 77 3.3 WNW 35 41 19 22 1002.0 1001.9 0.0
14/02:30pm 32.3 33.8 27.5 76 3.5 WNW 35 41 19 22 1002.2 1002.1 0.0
14/02:00pm 31.5 32.8 27.2 78 3.1 WNW 35 41 19 22 1002.4 1002.3 0.0
14/01:30pm 32.0 33.8 27.2 76 3.5 WNW 32 37 17 20 1002.4 1002.3 0.0
14/01:00pm 33.1 35.0 27.6 73 4.0 WNW 33 39 18 21 1003.0 1002.9 0.0
14/12:30pm 32.6 34.4 27.1 73 4.0 W 32 37 17 20 1003.2 1003.1 0.0
14/12:00pm 32.6 33.7 26.4 70 4.5 W 33 41 18 22 1003.5 1003.4 0.0
14/11:30am 32.0 33.1 26.1 71 4.2 W 32 39 17 21 1003.9 1003.8 0.0
14/11:00am 31.7 32.9 26.3 73 3.9 W 32 37 17 20 1004.4 1004.3 0.0
14/10:30am 31.8 32.6 25.9 71 4.2 WSW 33 39 18 21 1004.6 1004.5 0.0
14/10:00am 31.3 30.7 25.6 71 4.0 WSW 39 46 21 25 1004.9 1004.8 0.0
14/09:30am 30.9 30.7 26.2 76 3.4 WSW 39 48 21 26 1005.4 1005.3 0.0
14/09:00am 30.7 29.4 25.1 72 4.0 W 41 48 22 26 1005.0 1004.9 0.0
14/08:30am 30.6 30.7 25.4 74 3.7 W 35 43 19 23 1005.2 1005.1 0.0
14/08:00am 30.6 31.4 25.7 75 3.5 W 32 44 17 24 1005.3 1005.2 0.0
14/07:30am 29.3 29.0 24.2 74 3.6 WNW 33 43 18 23 1004.9 1004.8 0.0
14/07:13am 29.1 28.7 24.7 77 3.1 W 35 56 19 30 1004.7 1004.6 0.0
14/07:00am 30.0 31.4 27.4 86 1.9 WNW 35 41 19 22 1004.8 1004.7 0.0
14/06:30am 30.0 31.0 26.8 83 2.3 WNW 35 44 19 24 1004.5 1004.4 0.0
14/06:00am 30.3 30.6 26.9 82 2.5 WNW 39 44 21 24 1004.1 1004.0 0.0
14/05:30am 30.0 30.6 26.8 83 2.3 WNW 37 44 20 24 1003.7 1003.6 0.0
14/05:00am 30.0 30.5 26.6 82 2.4 WNW 37 46 20 25 1003.5 1003.4 0.0
14/04:30am 29.8 30.1 26.4 82 2.4 WNW 37 44 20 24 1003.1 1003.0 0.0
14/04:00am 29.8 30.0 26.2 81 2.6 WNW 37 48 20 26 1002.5 1002.4 0.0
14/03:30am 29.7 28.9 25.2 77 3.2 WNW 39 46 21 25 1002.1 1002.0 0.0
14/03:00am 29.6 29.5 25.1 77 3.2 W 35 44 19 24 1002.4 1002.3 0.0
14/02:30am 29.5 29.2 24.8 76 3.3 W 35 43 19 23 1002.7 1002.6 0.0
14/02:00am 29.1 29.1 24.4 76 3.3 W 32 37 17 20 1002.7 1002.6 0.0
14/01:30am 29.0 28.4 24.3 76 3.3 W 35 43 19 23 1002.9 1002.8 0.0
14/01:00am 29.1 28.2 25.1 79 2.8 W 39 48 21 26 1003.2 1003.1 0.0
14/12:30am 29.5 27.7 24.8 76 3.3 WNW 43 50 23 27 1003.4 1003.3 0.0
14/12:00am 30.3 29.4 27.1 83 2.3 WNW 46 54 25 29 1003.2 1003.1 0.0
 
Date/Time
CST
Temp
°C
App
Temp
°C
Dew
Point
°C
Rel
Hum
%
Delta-T
°C
Wind Press
QNH
hPa
Press
MSL
hPa
Rain since
9am
mm
Dir  Spd
km/h
Gust
km/h
Spd
kts
Gust
kts
13/11:30pm 30.4 29.8 27.0 82 2.5 WNW 44 52 24 28 1003.6 1003.5 0.0
13/11:00pm 30.4 29.4 27.0 82 2.4 WNW 46 54 25 29 1004.2 1004.1 0.0
13/10:30pm 30.5 29.8 26.9 81 2.6 WNW 44 57 24 31 1004.3 1004.2 0.0
13/10:00pm 30.5 30.3 27.3 83 2.3 NW 43 50 23 27 1004.1 1004.0 0.0
13/09:30pm 30.5 30.1 27.3 83 2.3 NW 44 52 24 28 1004.3 1004.2 0.0
13/09:00pm 30.5 30.1 27.3 83 2.3 NW 44 56 24 30 1003.9 1003.8 0.0
13/08:30pm 30.5 30.3 27.3 83 2.3 NW 43 50 23 27 1003.6 1003.5 0.0
13/08:00pm 30.5 30.0 26.9 81 2.6 NW 43 50 23 27 1003.3 1003.2 0.0
13/07:30pm 30.4 30.3 26.3 79 2.9 NW 39 48 21 26 1003.1 1003.0 0.0
13/07:00pm 30.3 30.0 26.0 78 3.1 NW 39 46 21 25 1002.8 1002.7 0.0
13/06:30pm 30.2 30.5 26.4 80 2.7 NW 37 44 20 24 1002.6 1002.5 0.0
13/06:00pm 30.4 30.7 26.3 79 2.9 NW 37 43 20 23 1002.3 1002.2 0.0
13/05:30pm 30.3 30.2 25.8 77 3.2 NW 37 44 20 24 1002.3 1002.2 0.0
13/05:00pm 30.6 30.5 25.7 75 3.5 NW 37 43 20 23 1002.5 1002.4 0.0
13/04:30pm 30.5 30.5 25.3 74 3.7 NW 35 43 19 23 1002.5 1002.4 0.0
13/04:00pm 30.6 30.5 25.2 73 3.8 NW 35 43 19 23 1002.6 1002.5 0.0
13/03:30pm 31.1 31.0 25.2 71 4.2 NW 35 41 19 22 1003.1 1003.0 0.0
13/03:00pm 31.2 31.1 24.6 68 4.6 NW 33 41 18 22 1003.1 1003.0 0.0
13/02:30pm 31.6 31.4 25.0 68 4.7 WNW 35 41 19 22 1003.9 1003.8 0.0
13/02:00pm 31.3 31.0 24.9 69 4.5 WNW 35 43 19 23 1004.2 1004.1 0.0
13/01:30pm 31.4 31.5 25.5 71 4.2 W 35 41 19 22 1004.5 1004.4 0.0
13/01:00pm 31.3 30.5 25.2 70 4.3 WNW 39 46 21 25 1004.9 1004.8 0.0

Other Formats:

Comma delimited format used in spreadsheet applications
http://www.bom.gov.au/fwo/IDD60801/IDD60801.95146.axf

JavaScript Object Notation format (JSON) in row-major order
http://www.bom.gov.au/fwo/IDD60801/IDD60801.95146.json